Time;durP1;ratioP1;P1;durP2;ratioP2;P2;SDS_P1;SDS_P2;PMS_P1;PMS_P2;Temp;Humidity;BMP_temperature;BMP_pressure;BME280_temperature;BME280_humidity;BME280_pressure;Samples;Min_cycle;Max_cycle;Signal;HPM_P1;HPM_P2
2021/12/18 14:56:38;;;;;;;20.42;11.55;;;;;;;-2.21;86.23;98492.28;4858395;27;6154647;-89
2021/12/18 14:59:22;;;;;;;22.48;12.77;;;;;;;-1.86;86.79;98490.78;5036912;28;20465;-86
2021/12/18 15:02:29;;;;;;;19.75;10.52;;;;;;;-1.60;87.03;98457.34;5032150;28;20037;-88
2021/12/18 15:05:20;;;;;;;17.00;10.05;;;;;;;-1.38;86.56;98454.59;5020751;28;20048;-87
2021/12/18 15:07:57;;;;;;;;;;;;;;;-0.94;86.55;98467.41;5035922;28;20116;-88
2021/12/18 15:11:00;;;;;;;20.10;9.68;;;;;;;-0.80;85.60;98444.81;5021700;28;19909;-89
2021/12/18 15:14:29;;;;;;;15.63;9.57;;;;;;;-0.56;84.46;98457.69;4965290;28;20051;-89
2021/12/18 15:17:20;;;;;;;14.55;9.50;;;;;;;-0.42;83.48;98428.97;4915410;29;20573;-87
2021/12/18 15:20:00;;;;;;;15.07;9.63;;;;;;;-0.27;81.95;98438.69;4903596;29;20047;-91
2021/12/18 15:26:16;;;;;;;15.73;9.32;;;;;;;-0.21;80.76;98434.94;4910298;29;20612;-91
2021/12/18 15:29:08;;;;;;;;;;;;;;;;;;;;;
2021/12/18 15:37:28;;;;;;;13.65;7.82;;;;;;;0.12;78.97;98434.97;4798633;29;20051;-89
2021/12/18 15:53:13;;;;;;;;;;;;;;;;;;;;;
2021/12/18 15:56:42;;;;;;;13.90;7.45;;;;;;;-0.02;78.01;98392.78;4700772;30;20107;-90
2021/12/18 15:59:47;;;;;;;15.18;7.45;;;;;;;-0.01;77.89;98392.72;4720462;30;20068;-89
2021/12/18 16:02:22;;;;;;;15.77;8.18;;;;;;;0.07;77.78;98387.03;4759625;29;20147;-89
2021/12/18 16:05:03;;;;;;;13.90;7.63;;;;;;;0.10;77.71;98379.00;4772608;29;20086;-88
2021/12/18 16:07:44;;;;;;;19.73;7.55;;;;;;;0.18;77.46;98368.09;4751554;29;20527;-88
2021/12/18 16:10:53;;;;;;;11.90;6.95;;;;;;;0.20;77.17;98368.88;4790622;29;20057;-93
2021/12/18 16:17:04;;;;;;;17.02;8.75;;;;;;;0.22;76.89;98367.84;4814825;29;20049;-92
2021/12/18 16:19:49;;;;;;;10.55;7.00;;;;;;;0.28;76.88;98355.31;4806926;29;20058;-88
2021/12/18 16:23:54;;;;;;;10.82;7.55;;;;;;;0.00;76.55;98338.41;4864706;29;20032;-94
2021/12/18 16:37:55;;;;;;;12.15;7.25;;;;;;;0.27;76.83;98329.97;4859359;29;20042;-88
2021/12/18 16:40:28;;;;;;;11.70;7.07;;;;;;;0.29;76.52;98325.47;4889551;29;20064;-86
2021/12/18 17:18:56;;;;;;;13.25;7.63;;;;;;;0.45;75.65;98292.13;4696764;30;20055;-90
2021/12/18 17:36:55;;;;;;;12.63;8.23;;;;;;;0.24;74.96;98250.34;5092171;23;20046;-93
2021/12/18 17:40:46;;;;;;;13.65;8.75;;;;;;;0.38;75.47;98267.16;4952260;29;20048;-93
2021/12/18 17:44:11;;;;;;;12.20;8.48;;;;;;;0.32;74.92;98241.19;4898382;29;20832;-95
2021/12/18 17:47:06;;;;;;;14.32;9.05;;;;;;;0.24;74.81;98239.84;4864040;29;20077;-92
2021/12/18 17:49:44;;;;;;;12.23;8.45;;;;;;;0.33;75.19;98237.63;4849609;29;20053;-92
2021/12/18 17:52:10;;;;;;;;;;;;;;;0.45;74.80;98247.44;4868705;29;20044;-94
2021/12/18 17:54:36;;;;;;;13.80;8.90;;;;;;;0.35;75.10;98225.25;4874708;29;19928;-92
2021/12/18 17:57:02;;;;;;;15.60;8.98;;;;;;;0.48;75.37;98236.75;4870898;29;20045;-93
2021/12/18 17:59:28;;;;;;;11.60;8.52;;;;;;;0.48;75.21;98227.06;4883795;29;20085;-88
2021/12/18 18:01:55;;;;;;;15.23;8.48;;;;;;;0.41;74.73;98224.88;4899672;29;20057;-88
2021/12/18 18:04:21;;;;;;;15.30;9.32;;;;;;;0.45;75.24;98215.88;4838256;29;20063;-90
2021/12/18 18:06:47;;;;;;;13.95;9.23;;;;;;;0.39;75.03;98213.63;4863194;29;20107;-86
2021/12/18 18:09:16;;;;;;;14.30;7.97;;;;;;;0.44;74.98;98214.19;4875643;29;20527;-87
2021/12/18 18:11:42;;;;;;;12.00;7.50;;;;;;;0.51;75.03;98214.72;4944085;29;20054;-87
2021/12/18 18:14:08;;;;;;;12.23;7.88;;;;;;;0.51;74.74;98215.56;4936976;29;20043;-87
2021/12/18 18:16:34;;;;;;;13.05;7.65;;;;;;;0.55;75.03;98210.97;4913035;29;20051;-88
2021/12/18 18:19:00;;;;;;;12.27;7.05;;;;;;;0.48;74.73;98206.03;4927375;29;20448;-89
2021/12/18 18:21:26;;;;;;;13.70;7.90;;;;;;;0.49;74.48;98204.28;4943245;29;20086;-89
2021/12/18 18:23:52;;;;;;;9.77;6.80;;;;;;;0.45;74.50;98202.75;4927151;29;20042;-88
2021/12/18 18:26:19;;;;;;;12.63;7.60;;;;;;;0.47;74.95;98206.16;4931682;29;20057;-91
2021/12/18 18:28:45;;;;;;;9.70;7.13;;;;;;;0.42;74.62;98201.16;4943371;28;20074;-89
2021/12/18 18:31:11;;;;;;;11.18;6.97;;;;;;;0.43;75.25;98202.00;4923136;29;20114;-90
2021/12/18 18:33:37;;;;;;;11.85;7.20;;;;;;;0.49;74.78;98193.78;4907327;29;20411;-90
2021/12/18 18:36:05;;;;;;;10.75;7.10;;;;;;;0.59;74.99;98194.91;4922377;29;20471;-88
2021/12/18 18:38:30;;;;;;;9.20;6.28;;;;;;;0.63;74.75;98193.78;4906842;29;20476;-87
2021/12/18 18:40:56;;;;;;;9.52;6.50;;;;;;;0.57;74.48;98183.66;4941870;29;20051;-87
2021/12/18 18:43:28;;;;;;;10.23;7.07;;;;;;;0.63;74.57;98191.16;4912509;29;20536;-89
2021/12/18 18:46:12;;;;;;;10.85;6.93;;;;;;;0.66;74.09;98192.78;4909247;29;20078;-89
2021/12/18 18:48:39;;;;;;;9.95;6.45;;;;;;;0.63;74.39;98193.78;4909862;29;20544;-89
2021/12/18 18:51:06;;;;;;;9.02;6.80;;;;;;;0.52;74.34;98182.22;4923558;29;20097;-89
2021/12/18 18:53:32;;;;;;;8.20;6.45;;;;;;;0.59;74.43;98186.19;4923549;29;20039;-90
2021/12/18 18:55:59;;;;;;;8.15;5.75;;;;;;;0.62;74.24;98176.34;4962569;29;20054;-90
2021/12/18 18:58:26;;;;;;;11.05;6.40;;;;;;;0.53;74.43;98171.63;4909770;29;20134;-89
2021/12/18 19:00:53;;;;;;;8.82;5.78;;;;;;;0.60;74.42;98169.47;4923746;29;20475;-90
2021/12/18 19:03:19;;;;;;;9.00;6.03;;;;;;;0.64;74.00;98161.31;4923162;29;20495;-89
2021/12/18 19:05:45;;;;;;;7.78;5.93;;;;;;;0.70;73.98;98162.72;4922582;29;20462;-90
2021/12/18 19:08:12;;;;;;;9.23;6.25;;;;;;;0.65;73.92;98154.28;4938737;29;20043;-89
2021/12/18 19:10:38;;;;;;;9.18;5.72;;;;;;;0.61;74.21;98143.09;4924177;29;20054;-92
2021/12/18 19:13:04;;;;;;;9.25;6.53;;;;;;;0.72;74.14;98156.47;4922783;29;20047;-90
2021/12/18 19:15:30;;;;;;;10.45;6.45;;;;;;;0.72;73.79;98151.19;4890869;29;20047;-88
2021/12/18 19:17:57;;;;;;;10.13;6.55;;;;;;;0.67;74.01;98142.72;4906272;29;20422;-88
2021/12/18 19:20:28;;;;;;;10.48;6.63;;;;;;;0.70;73.79;98147.78;4922216;29;20090;-89
2021/12/18 19:22:58;;;;;;;12.07;6.50;;;;;;;0.67;73.94;98133.97;4907772;29;20078;-89
2021/12/18 19:25:24;;;;;;;;;;;;;;;0.75;74.31;98137.00;4923185;29;20044;-89
2021/12/18 19:27:51;;;;;;;9.68;6.72;;;;;;;0.59;73.70;98121.28;4921933;29;19922;-89
2021/12/18 19:30:19;;;;;;;9.93;6.65;;;;;;;0.69;73.66;98132.97;4922178;29;20051;-89
2021/12/18 19:32:46;;;;;;;10.88;7.25;;;;;;;0.62;73.50;98131.63;4891392;29;20082;-89
2021/12/18 19:35:12;;;;;;;11.15;7.50;;;;;;;0.64;73.57;98129.78;4921734;29;20134;-87
2021/12/18 19:37:38;;;;;;;10.80;7.25;;;;;;;0.62;73.94;98117.63;4891088;29;20043;-91
2021/12/18 19:40:08;;;;;;;9.98;7.03;;;;;;;0.67;74.07;98131.34;4906548;29;20066;-92
2021/12/18 19:42:34;;;;;;;10.88;7.10;;;;;;;0.66;73.85;98114.72;4878514;29;20109;-92
2021/12/18 19:45:00;;;;;;;10.48;7.13;;;;;;;0.65;73.92;98118.31;4894543;29;20055;-90
2021/12/18 19:47:26;;;;;;;9.85;6.97;;;;;;;0.67;73.59;98111.16;4915283;29;20066;-95
2021/12/18 19:49:54;;;;;;;10.40;6.80;;;;;;;0.66;73.84;98109.47;4927382;29;20045;-88
2021/12/18 19:52:21;;;;;;;9.55;6.85;;;;;;;0.65;73.96;98107.78;4928178;29;20054;-85
2021/12/18 19:54:47;;;;;;;11.02;7.15;;;;;;;0.61;73.87;98101.03;4894495;29;20046;-87
2021/12/18 19:57:13;;;;;;;8.57;6.22;;;;;;;0.47;73.83;98093.09;4940795;29;20058;-86
2021/12/18 19:59:40;;;;;;;10.23;6.93;;;;;;;0.45;74.13;98100.22;4893496;29;20047;-85
2021/12/18 20:02:16;;;;;;;9.80;6.57;;;;;;;0.48;74.31;98093.00;4925420;29;20139;-86
2021/12/18 20:04:42;;;;;;;9.13;6.75;;;;;;;0.60;74.45;98091.44;4896152;29;20063;-85
2021/12/18 20:07:10;;;;;;;10.60;6.55;;;;;;;0.63;74.49;98095.66;4909339;29;20043;-87
2021/12/18 20:09:37;;;;;;;11.60;8.10;;;;;;;0.59;74.25;98092.34;4909670;29;20050;-85
2021/12/18 20:12:03;;;;;;;11.73;7.35;;;;;;;0.55;73.95;98090.00;4941451;29;20105;-88
2021/12/18 20:14:29;;;;;;;13.50;7.50;;;;;;;0.54;73.99;98090.97;4894074;29;20043;-88
2021/12/18 20:16:59;;;;;;;10.98;7.10;;;;;;;0.52;74.34;98090.19;4909888;29;20058;-87
2021/12/18 20:19:27;;;;;;;;;;;;;;;0.51;74.49;98084.09;4925656;29;20047;-87
2021/12/18 20:21:54;;;;;;;11.70;7.22;;;;;;;0.49;74.31;98085.97;4924786;29;20393;-87
2021/12/18 20:24:22;;;;;;;9.93;6.47;;;;;;;0.52;74.26;98082.31;4924811;29;20078;-88
2021/12/18 20:26:49;;;;;;;10.43;6.95;;;;;;;0.54;74.12;98076.03;4941059;29;20078;-89
2021/12/18 20:29:15;;;;;;;10.70;7.20;;;;;;;0.47;74.32;98075.53;4909525;29;20047;-88
2021/12/18 20:31:42;;;;;;;12.82;7.00;;;;;;;0.50;74.23;98064.00;4909245;29;20046;-88
2021/12/18 20:34:09;;;;;;;8.98;5.95;;;;;;;0.57;74.70;98053.97;4899423;29;20045;-89
2021/12/18 20:36:35;;;;;;;9.50;6.35;;;;;;;0.65;74.32;98063.06;4943219;29;20063;-90
2021/12/18 20:39:02;;;;;;;10.82;6.63;;;;;;;0.68;74.20;98059.44;4956598;29;20047;-85
2021/12/18 20:41:28;;;;;;;10.07;6.70;;;;;;;0.68;74.05;98054.16;4957077;29;20058;-86
2021/12/18 20:43:55;;;;;;;8.23;5.85;;;;;;;0.56;74.00;98039.94;4893059;29;20501;-84
2021/12/18 20:46:25;;;;;;;9.60;6.28;;;;;;;0.69;73.77;98045.34;4908999;29;20050;-87
2021/12/18 20:48:52;;;;;;;9.23;6.45;;;;;;;0.70;74.14;98039.97;4909274;29;20115;-88
2021/12/18 20:51:18;;;;;;;8.68;6.07;;;;;;;0.59;73.55;98045.03;4940117;29;20043;-88
2021/12/18 20:53:44;;;;;;;9.65;6.65;;;;;;;0.52;73.85;98030.56;4908576;29;20058;-89
2021/12/18 20:56:10;;;;;;;9.85;6.68;;;;;;;0.60;73.93;98032.72;4892743;29;20043;-89
2021/12/18 20:58:36;;;;;;;12.38;7.50;;;;;;;0.61;74.01;98016.88;4940946;29;20043;-93
2021/12/18 21:01:07;;;;;;;11.48;7.13;;;;;;;0.59;73.88;98018.72;4913753;29;20153;-96
2021/12/18 21:03:38;;;;;;;10.80;7.60;;;;;;;0.61;73.58;98014.25;4910594;29;20027;-93
2021/12/18 21:06:04;;;;;;;14.40;7.80;;;;;;;0.62;73.63;98012.44;4941591;29;20047;-96
2021/12/18 21:08:31;;;;;;;13.85;8.40;;;;;;;0.63;73.75;98012.34;4943959;29;20059;-96
2021/12/18 21:10:58;;;;;;;13.05;8.45;;;;;;;0.59;73.98;97999.50;4930076;29;20051;-96
2021/12/18 21:13:24;;;;;;;12.95;8.93;;;;;;;0.50;73.95;97998.28;4933460;29;20043;-95
2021/12/18 21:15:50;;;;;;;14.63;9.45;;;;;;;0.49;74.03;97991.34;4956266;29;20054;-96
2021/12/18 21:18:23;;;;;;;14.07;9.25;;;;;;;0.43;74.57;97978.53;4943269;28;20120;-96
2021/12/18 21:20:49;;;;;;;15.27;10.38;;;;;;;0.53;74.47;97987.56;4947515;29;20044;-96
2021/12/18 21:23:15;;;;;;;15.18;10.10;;;;;;;0.38;74.35;97973.56;4941667;29;20053;-96
2021/12/18 21:25:41;;;;;;;14.65;9.27;;;;;;;0.42;74.79;97974.25;4937741;29;20048;-96
2021/12/18 21:28:07;;;;;;;14.68;10.00;;;;;;;0.45;74.80;97964.38;4920079;29;20064;-96
2021/12/18 21:30:37;;;;;;;14.52;9.52;;;;;;;0.52;74.53;97954.31;4960589;29;20071;-86
2021/12/18 21:33:03;;;;;;;16.20;10.13;;;;;;;0.51;74.66;97952.63;4909368;29;20130;-87
2021/12/18 21:38:14;;;;;;;13.52;9.38;;;;;;;0.62;74.33;97958.06;4957455;29;20498;-87
2021/12/18 21:40:41;;;;;;;12.70;8.70;;;;;;;0.36;74.43;97959.66;4956336;29;20058;-87
2021/12/18 21:43:07;;;;;;;15.13;9.85;;;;;;;0.30;75.18;97951.31;4923154;29;20055;-87
2021/12/18 21:45:33;;;;;;;12.55;8.43;;;;;;;0.12;75.05;97967.25;4959896;29;20055;-93
2021/12/18 21:48:01;;;;;;;11.40;8.32;;;;;;;0.03;75.96;97957.28;4958417;29;20039;-92
2021/12/18 21:50:30;;;;;;;14.13;8.38;;;;;;;0.00;76.02;97952.22;4938990;29;20054;-89
2021/12/18 21:52:56;;;;;;;16.63;8.48;;;;;;;-0.10;76.20;97940.56;4939210;29;20047;-90
2021/12/18 21:55:22;;;;;;;14.25;8.65;;;;;;;0.02;75.91;97939.00;4907568;29;20126;-86
2021/12/18 21:57:48;;;;;;;18.50;10.18;;;;;;;0.10;76.31;97929.72;4938954;29;20170;-86
2021/12/18 22:00:14;;;;;;;18.60;10.05;;;;;;;0.10;75.69;97921.81;4956039;29;20051;-85
2021/12/18 22:02:43;;;;;;;21.65;11.20;;;;;;;0.20;75.85;97944.00;4922724;29;20035;-84
2021/12/18 22:05:10;;;;;;;23.77;12.52;;;;;;;0.28;75.56;97935.63;4948980;29;20061;-86
2021/12/18 22:07:36;;;;;;;23.02;12.73;;;;;;;0.22;75.91;97923.69;4976585;28;20047;-86
2021/12/18 22:10:03;;;;;;;24.70;12.63;;;;;;;0.29;75.44;97926.81;4923122;29;20051;-87
2021/12/18 22:12:32;;;;;;;26.80;12.77;;;;;;;0.37;75.89;97932.44;4924040;28;20518;-86
2021/12/18 22:14:58;;;;;;;27.75;13.80;;;;;;;0.37;75.67;97915.81;4906885;29;20051;-85
2021/12/18 22:17:25;;;;;;;26.92;13.57;;;;;;;0.37;75.63;97918.44;4956103;29;20043;-86
2021/12/18 22:19:51;;;;;;;32.00;15.13;;;;;;;0.49;75.60;97936.13;4955347;29;20039;-87
2021/12/18 22:22:17;;;;;;;28.05;14.18;;;;;;;0.43;75.54;97939.13;4938389;29;20498;-84
2021/12/18 22:24:43;;;;;;;37.33;19.15;;;;;;;0.45;75.29;97924.06;4937889;29;20178;-84
2021/12/18 22:27:10;;;;;;;30.45;14.80;;;;;;;0.48;74.96;97921.25;4922318;29;20054;-85
2021/12/18 22:29:36;;;;;;;27.10;15.07;;;;;;;0.44;75.06;97922.41;4942283;29;20106;-94
2021/12/18 22:32:03;;;;;;;28.23;15.02;;;;;;;0.51;75.67;97926.34;4945932;29;20043;-83
2021/12/18 22:34:29;;;;;;;28.10;14.48;;;;;;;0.53;75.36;97921.84;4954927;29;20047;-82
2021/12/18 22:36:56;;;;;;;33.67;16.92;;;;;;;0.55;75.11;97912.06;4937745;29;20503;-82
2021/12/18 22:39:22;;;;;;;30.35;16.70;;;;;;;0.60;75.23;97923.16;4954613;29;20049;-82
2021/12/18 22:41:47;;;;;;;26.25;14.32;;;;;;;0.64;75.35;97910.63;4959734;29;20039;-85
2021/12/18 22:44:14;;;;;;;28.90;15.15;;;;;;;0.63;75.27;97904.53;4893170;29;20043;-86
2021/12/18 22:46:40;;;;;;;25.25;14.77;;;;;;;0.71;75.23;97909.31;4957221;29;20051;-89
2021/12/18 22:49:09;;;;;;;30.02;16.90;;;;;;;0.70;75.16;97903.22;4942875;29;20047;-88
2021/12/18 22:51:35;;;;;;;;;;;;;;;0.71;74.94;97902.28;4929246;29;20054;-87
2021/12/18 22:54:01;;;;;;;32.53;18.65;;;;;;;0.66;74.87;97906.97;4958771;29;20024;-88
2021/12/18 22:56:27;;;;;;;26.00;17.10;;;;;;;0.65;75.13;97897.41;4926914;29;20051;-89
2021/12/18 22:58:53;;;;;;;28.27;15.85;;;;;;;0.75;75.07;97900.28;4955701;29;20486;-83
2021/12/18 23:01:24;;;;;;;22.30;13.30;;;;;;;0.76;74.88;97898.53;4954774;29;20043;-83
2021/12/18 23:03:51;;;;;;;16.90;11.95;;;;;;;0.60;75.08;97893.34;4923520;29;20135;-85
2021/12/18 23:06:17;;;;;;;16.95;10.75;;;;;;;0.68;75.20;97905.09;4939141;29;20190;-85
2021/12/18 23:08:44;;;;;;;14.20;9.93;;;;;;;0.71;75.41;97899.66;4938460;29;20522;-85
2021/12/18 23:11:19;;;;;;;14.30;9.90;;;;;;;0.77;75.29;97900.19;4921999;29;20051;-84
2021/12/18 23:21:35;;;;;;;12.15;8.05;;;;;;;0.86;75.26;97899.59;4911916;29;20046;-88
2021/12/18 23:24:01;;;;;;;10.57;7.13;;;;;;;0.86;75.09;97889.09;4894494;29;20051;-90
2021/12/18 23:26:27;;;;;;;11.70;7.70;;;;;;;0.84;75.44;97886.56;4910777;29;20047;-90
2021/12/18 23:28:54;;;;;;;12.35;8.30;;;;;;;0.87;75.15;97891.63;4941652;29;20039;-89
2021/12/18 23:31:20;;;;;;;10.95;7.60;;;;;;;0.88;75.30;97884.59;4941755;29;20102;-92
2021/12/18 23:33:46;;;;;;;11.45;7.80;;;;;;;0.94;75.46;97881.53;4912871;29;20068;-90
2021/12/18 23:36:14;;;;;;;11.70;8.30;;;;;;;0.96;74.83;97869.13;4941091;29;20066;-89
2021/12/18 23:38:40;;;;;;;13.63;7.70;;;;;;;0.88;74.96;97860.91;4958456;29;20046;-91
2021/12/18 23:41:07;;;;;;;11.85;7.82;;;;;;;0.87;75.33;97857.44;4941544;29;20047;-83
2021/12/18 23:48:52;;;;;;;10.52;7.97;;;;;;;0.81;75.26;97843.81;4930765;29;20126;-91
2021/12/18 23:51:18;;;;;;;12.98;8.07;;;;;;;0.73;75.73;97841.69;4895233;29;20058;-90
2021/12/18 23:53:45;;;;;;;12.88;7.70;;;;;;;0.77;75.51;97842.34;4910515;29;20047;-90
2021/12/18 23:56:11;;;;;;;10.55;7.45;;;;;;;0.67;75.37;97834.19;4941475;29;20047;-90
2021/12/18 23:58:37;;;;;;;10.35;7.28;;;;;;;0.55;76.09;97832.34;4925843;29;20047;-91
